Flight Track Log - Related Links

Times and Time Zones

All times are in EDT time to prevent confusion due to time zone crossing. See the SWA796 flight status page for this flight to view local times or setup timezone preferences in your user account.

Time Position Orientation Groundspeed Altitude Reporting Facility
EDT Latitude Longitude Course Direction KTS MPH feet Rate Location/Type
Sat 08:04:46 PM 37.4333 -121.9667 345° North 234 269 3,700  Level Northern Cal TRACON
Sat 08:05:52 PM 37.4333 -121.9000 90° East 251 289 5,000 1,510 Climbing Northern Cal TRACON
Sat 08:07:09 PM 37.3633 -121.8333 143° Southeast 234 269 7,300 2,304 Climbing Oakland Center
Sat 08:08:10 PM 37.3025 -121.7650 138° Southeast 284 327 10,300 2,607 Climbing Oakland Center
Sat 08:09:00 PM 36.9638 -121.3760 133° Southeast  Level Estimated
Sat 08:09:11 PM 37.2358 -121.6864 137° Southeast 319 367 12,600  Level Oakland Center
Sat 08:10:12 PM 37.1639 -121.6022 137° Southeast 346 398 15,900 3,000 Climbing Oakland Center
Sat 08:11:13 PM 37.0883 -121.5169 138° Southeast 360 414 18,700 2,410 Climbing Oakland Center
Sat 08:12:14 PM 37.0106 -121.4319 139° Southeast 372 428 20,800 2,195 Climbing Oakland Center
Sat 08:13:16 PM 36.9256 -121.3422 140° Southeast 391 450 23,200 2,439 Climbing Oakland Center
Sat 08:14:17 PM 36.8247 -121.2328 139° Southeast 401 461 25,800 2,115 Climbing Oakland Center
Sat 08:15:18 PM 36.7353 -121.1353 139° Southeast 415 478 27,500 1,721 Climbing Oakland Center
Sat 08:16:19 PM 36.6464 -121.0383 139° Southeast 422 486 29,300 1,574 Climbing Oakland Center
Sat 08:17:20 PM 36.5558 -120.9411 139° Southeast 429 494 30,700 1,623 Climbing Oakland Center
Sat 08:18:21 PM 36.4647 -120.8428 139° Southeast 432 497 32,600 1,672 Climbing Oakland Center
Sat 08:19:22 PM 36.3744 -120.7475 140° Southeast 428 493 34,100 1,377 Climbing Oakland Center
Sat 08:20:23 PM 36.2836 -120.6508 139° Southeast 430 495 35,400 1,279 Climbing Oakland Center
Sat 08:21:24 PM 36.1922 -120.5528 139° Southeast 433 498 36,700 787 Climbing Oakland Center
Sat 08:22:25 PM 36.1006 -120.4525 139° Southeast 437 503 37,000 148 Climbing Oakland Center
Sat 08:23:26 PM 36.0250 -120.3239 126° Southeast 456 525 37,000  Level Oakland Center
Sat 08:24:27 PM 35.9503 -120.1986 126° Southeast 454 522 37,000  Level Oakland Center
Sat 08:25:29 PM 35.8761 -120.0731 126° Southeast 452 520 37,000  Level Oakland Center
Sat 08:26:30 PM 35.8011 -119.9506 127° Southeast 446 513 37,000  Level Oakland Center
Sat 08:27:31 PM 35.7283 -119.8281 126° Southeast 442 509 37,000  Level Oakland Center
Sat 08:28:32 PM 35.6547 -119.7058 127° Southeast 444 511 37,000  Level Oakland Center
Sat 08:29:23 PM 35.5783 -119.5825 127° Southeast 450 518 37,000  Level Los Angeles Center
Sat 08:30:25 PM 35.5028 -119.4583 127° Southeast 453 521 37,000 -98 Level Los Angeles Center
Sat 08:31:26 PM 35.4272 -119.3350 127° Southeast 451 519 36,800 -585 Descending Los Angeles Center
Sat 08:32:28 PM 35.3514 -119.2103 127° Southeast 453 521 35,800 -919 Descending Los Angeles Center
Sat 08:33:30 PM 35.2753 -119.0861 127° Southeast 455 524 34,900 -387 Descending Los Angeles Center
Sat 08:34:32 PM 35.1989 -118.9647 128° Southeast 451 519 35,000 48 Climbing Los Angeles Center
Sat 08:35:34 PM 35.1075 -118.8183 127° Southeast 452 520 35,000 -774 Level Los Angeles Center
Sat 08:36:36 PM 35.0319 -118.6969 127° Southeast 451 519 33,400 -2,081 Descending Los Angeles Center
Sat 08:37:38 PM 34.9564 -118.5761 127° Southeast 448 516 30,700 -2,323 Descending Los Angeles Center
Sat 08:38:40 PM 34.8869 -118.4667 128° Southeast 438 504 28,600 -2,098 Descending Los Angeles Center
Sat 08:39:41 PM 34.8161 -118.3564 128° Southeast 419 482 26,400 -2,098 Descending Los Angeles Center
Sat 08:40:43 PM 34.7494 -118.2508 128° Southeast 402 463 24,300 -1,854 Descending Los Angeles Center
Sat 08:41:44 PM 34.6872 -118.1533 128° Southeast 374 430 22,600 -1,694 Descending Los Angeles Center
Sat 08:42:47 PM 34.6144 -118.0311 126° Southeast 374 430 20,800 -1,645 Descending Los Angeles Center
Sat 08:43:48 PM 34.5653 -117.9214 119° Southeast 373 429 19,200 -1,220 Descending Los Angeles Center
Sat 08:44:50 PM 34.5153 -117.8136 119° Southeast 370 426 18,300 -1,258 Descending Los Angeles Center
Sat 08:45:52 PM 34.4664 -117.7047 119° Southeast 369 425 16,600 -1,935 Descending Los Angeles Center
Sat 08:46:54 PM 34.4081 -117.5800 120° Southeast 357 411 14,300 -1,756 Descending Los Angeles Center
Sat 08:47:55 PM 34.3678 -117.4889 118° Southeast 332 382 13,000 -1,659 Descending Los Angeles Center
Sat 08:48:57 PM 34.3247 -117.3981 120° Southeast 314 361 10,900 -2,226 Descending Los Angeles Center
Sat 08:49:59 PM 34.2736 -117.3200 128° Southeast 306 352 8,400 -1,805 Descending Los Angeles Center
Sat 08:51:00 PM 34.2058 -117.3233 182° South 310 357 7,200 -1,333 Descending Los Angeles Center
Sat 08:52:14 PM 34.1072 -117.3711 202° Southwest 264 304 5,400 -1,721 Descending Los Angeles Center
Sat 08:53:16 PM 34.0672 -117.4447 237° Southwest 231 266 3,300 -1,412 Descending Los Angeles Center
Sat 08:54:30 PM 34.0567 -117.5042 258° West 203 234 2,200 -838 Descending Los Angeles Center
Sat 08:55:32 PM 34.0581 -117.5586 272° West 155 178 1,400 -488 Descending Los Angeles Center
Sat 08:56:33 PM 34.0592 -117.6011 272° West 150 173 1,200 -197 Descending Los Angeles Center

Login

Don't have an account? Register now (free) for customized features, flight alerts, and more!